sensor_id;sensor_type;location;lat;lon;timestamp;P1;durP1;ratioP1;P2;durP2;ratioP2
51525;SDS011;37611;51.794;21.590;2023-11-18T00:03:42;14.80;;;11.40;;
51525;SDS011;37611;51.794;21.590;2023-11-18T00:07:44;12.00;;;9.90;;
51525;SDS011;37611;51.794;21.590;2023-11-18T00:11:46;10.50;;;9.40;;
51525;SDS011;37611;51.794;21.590;2023-11-18T00:15:47;12.00;;;10.10;;
51525;SDS011;37611;51.794;21.590;2023-11-18T00:19:49;10.80;;;9.00;;
51525;SDS011;37611;51.794;21.590;2023-11-18T00:23:51;15.90;;;10.50;;
51525;SDS011;37611;51.794;21.590;2023-11-18T00:27:52;12.20;;;9.10;;
51525;SDS011;37611;51.794;21.590;2023-11-18T00:31:54;12.40;;;9.40;;
51525;SDS011;37611;51.794;21.590;2023-11-18T00:35:55;9.20;;;7.60;;
51525;SDS011;37611;51.794;21.590;2023-11-18T00:39:57;9.90;;;8.00;;
51525;SDS011;37611;51.794;21.590;2023-11-18T00:43:59;9.60;;;8.20;;
51525;SDS011;37611;51.794;21.590;2023-11-18T00:48:00;9.40;;;8.40;;
51525;SDS011;37611;51.794;21.590;2023-11-18T00:52:02;10.80;;;8.70;;
51525;SDS011;37611;51.794;21.590;2023-11-18T00:56:05;10.20;;;7.60;;
51525;SDS011;37611;51.794;21.590;2023-11-18T01:00:11;8.80;;;7.80;;
51525;SDS011;37611;51.794;21.590;2023-11-18T01:04:15;9.60;;;8.50;;
51525;SDS011;37611;51.794;21.590;2023-11-18T01:08:16;10.20;;;8.70;;
51525;SDS011;37611;51.794;21.590;2023-11-18T01:12:18;18.60;;;12.90;;
51525;SDS011;37611;51.794;21.590;2023-11-18T01:16:20;11.10;;;9.30;;
51525;SDS011;37611;51.794;21.590;2023-11-18T01:20:22;10.60;;;8.40;;
51525;SDS011;37611;51.794;21.590;2023-11-18T01:24:23;10.20;;;9.00;;
51525;SDS011;37611;51.794;21.590;2023-11-18T01:28:25;12.60;;;9.70;;
51525;SDS011;37611;51.794;21.590;2023-11-18T01:32:27;15.40;;;10.50;;
51525;SDS011;37611;51.794;21.590;2023-11-18T01:36:31;10.10;;;9.10;;
51525;SDS011;37611;51.794;21.590;2023-11-18T01:40:33;10.50;;;8.00;;
51525;SDS011;37611;51.794;21.590;2023-11-18T01:44:34;9.70;;;8.30;;
51525;SDS011;37611;51.794;21.590;2023-11-18T01:48:37;11.40;;;8.70;;
51525;SDS011;37611;51.794;21.590;2023-11-18T01:52:39;9.60;;;8.20;;
51525;SDS011;37611;51.794;21.590;2023-11-18T01:56:46;13.10;;;9.50;;
51525;SDS011;37611;51.794;21.590;2023-11-18T02:00:48;9.00;;;7.50;;
51525;SDS011;37611;51.794;21.590;2023-11-18T02:04:52;9.50;;;8.40;;
51525;SDS011;37611;51.794;21.590;2023-11-18T02:08:54;12.20;;;9.70;;
51525;SDS011;37611;51.794;21.590;2023-11-18T02:13:04;9.00;;;7.70;;
51525;SDS011;37611;51.794;21.590;2023-11-18T02:17:09;8.10;;;7.30;;
51525;SDS011;37611;51.794;21.590;2023-11-18T02:21:11;12.40;;;8.90;;
51525;SDS011;37611;51.794;21.590;2023-11-18T02:25:16;11.60;;;9.00;;
51525;SDS011;37611;51.794;21.590;2023-11-18T02:29:17;10.30;;;8.40;;
51525;SDS011;37611;51.794;21.590;2023-11-18T02:33:21;9.30;;;7.10;;
51525;SDS011;37611;51.794;21.590;2023-11-18T02:37:24;8.40;;;7.40;;
51525;SDS011;37611;51.794;21.590;2023-11-18T02:41:26;8.30;;;6.60;;
51525;SDS011;37611;51.794;21.590;2023-11-18T02:45:30;8.00;;;6.80;;
51525;SDS011;37611;51.794;21.590;2023-11-18T02:49:37;10.80;;;8.00;;
51525;SDS011;37611;51.794;21.590;2023-11-18T02:53:38;8.10;;;7.30;;
51525;SDS011;37611;51.794;21.590;2023-11-18T02:57:42;7.60;;;6.80;;
51525;SDS011;37611;51.794;21.590;2023-11-18T03:01:43;9.10;;;7.40;;
51525;SDS011;37611;51.794;21.590;2023-11-18T03:05:45;8.80;;;6.40;;
51525;SDS011;37611;51.794;21.590;2023-11-18T03:09:51;7.20;;;6.30;;
51525;SDS011;37611;51.794;21.590;2023-11-18T03:13:52;8.90;;;7.50;;
51525;SDS011;37611;51.794;21.590;2023-11-18T03:17:55;9.10;;;7.70;;
51525;SDS011;37611;51.794;21.590;2023-11-18T03:21:57;9.30;;;7.20;;
51525;SDS011;37611;51.794;21.590;2023-11-18T03:25:59;8.50;;;7.60;;
51525;SDS011;37611;51.794;21.590;2023-11-18T03:30:01;9.60;;;8.60;;
51525;SDS011;37611;51.794;21.590;2023-11-18T03:34:02;9.10;;;7.40;;
51525;SDS011;37611;51.794;21.590;2023-11-18T03:38:04;10.10;;;8.10;;
51525;SDS011;37611;51.794;21.590;2023-11-18T03:42:05;9.80;;;8.50;;
51525;SDS011;37611;51.794;21.590;2023-11-18T03:46:07;11.50;;;9.10;;
51525;SDS011;37611;51.794;21.590;2023-11-18T03:50:09;11.80;;;9.80;;
51525;SDS011;37611;51.794;21.590;2023-11-18T03:54:11;9.80;;;8.40;;
51525;SDS011;37611;51.794;21.590;2023-11-18T03:58:14;8.50;;;7.10;;
51525;SDS011;37611;51.794;21.590;2023-11-18T04:02:15;7.50;;;6.40;;
51525;SDS011;37611;51.794;21.590;2023-11-18T04:06:17;9.40;;;7.40;;
51525;SDS011;37611;51.794;21.590;2023-11-18T04:10:18;8.20;;;7.20;;
51525;SDS011;37611;51.794;21.590;2023-11-18T04:14:21;8.20;;;7.10;;
51525;SDS011;37611;51.794;21.590;2023-11-18T04:18:23;9.90;;;8.10;;
51525;SDS011;37611;51.794;21.590;2023-11-18T04:22:25;9.70;;;7.10;;
51525;SDS011;37611;51.794;21.590;2023-11-18T04:26:27;10.70;;;9.50;;
51525;SDS011;37611;51.794;21.590;2023-11-18T04:30:28;14.60;;;13.10;;
51525;SDS011;37611;51.794;21.590;2023-11-18T04:34:30;9.50;;;8.50;;
51525;SDS011;37611;51.794;21.590;2023-11-18T04:38:31;9.40;;;8.40;;
51525;SDS011;37611;51.794;21.590;2023-11-18T04:42:33;7.80;;;7.00;;
51525;SDS011;37611;51.794;21.590;2023-11-18T04:46:35;7.40;;;6.70;;
51525;SDS011;37611;51.794;21.590;2023-11-18T04:50:41;7.50;;;6.80;;
51525;SDS011;37611;51.794;21.590;2023-11-18T04:54:43;9.90;;;7.50;;
51525;SDS011;37611;51.794;21.590;2023-11-18T04:58:45;10.90;;;8.20;;
51525;SDS011;37611;51.794;21.590;2023-11-18T05:02:48;9.90;;;7.70;;
51525;SDS011;37611;51.794;21.590;2023-11-18T05:06:50;14.90;;;9.50;;
51525;SDS011;37611;51.794;21.590;2023-11-18T05:10:52;10.90;;;7.70;;
51525;SDS011;37611;51.794;21.590;2023-11-18T05:14:56;10.00;;;9.00;;
51525;SDS011;37611;51.794;21.590;2023-11-18T05:18:58;10.30;;;9.30;;
51525;SDS011;37611;51.794;21.590;2023-11-18T05:22:59;8.30;;;7.50;;
51525;SDS011;37611;51.794;21.590;2023-11-18T05:27:01;8.70;;;7.80;;
51525;SDS011;37611;51.794;21.590;2023-11-18T05:31:03;10.20;;;8.60;;
51525;SDS011;37611;51.794;21.590;2023-11-18T05:35:06;9.80;;;8.80;;
51525;SDS011;37611;51.794;21.590;2023-11-18T05:39:08;25.40;;;18.40;;
51525;SDS011;37611;51.794;21.590;2023-11-18T05:43:10;17.60;;;15.90;;
51525;SDS011;37611;51.794;21.590;2023-11-18T05:47:17;28.50;;;25.50;;
51525;SDS011;37611;51.794;21.590;2023-11-18T05:51:25;25.20;;;22.70;;
51525;SDS011;37611;51.794;21.590;2023-11-18T05:55:27;13.30;;;12.10;;
51525;SDS011;37611;51.794;21.590;2023-11-18T05:59:29;11.10;;;9.70;;
51525;SDS011;37611;51.794;21.590;2023-11-18T06:03:31;10.30;;;9.30;;
51525;SDS011;37611;51.794;21.590;2023-11-18T06:07:32;12.60;;;11.40;;
51525;SDS011;37611;51.794;21.590;2023-11-18T06:11:35;13.50;;;12.20;;
51525;SDS011;37611;51.794;21.590;2023-11-18T06:15:42;13.60;;;12.20;;
51525;SDS011;37611;51.794;21.590;2023-11-18T06:19:44;13.00;;;11.80;;
51525;SDS011;37611;51.794;21.590;2023-11-18T06:23:46;13.50;;;12.10;;
51525;SDS011;37611;51.794;21.590;2023-11-18T06:27:48;16.00;;;13.70;;
51525;SDS011;37611;51.794;21.590;2023-11-18T06:31:51;13.20;;;11.90;;
51525;SDS011;37611;51.794;21.590;2023-11-18T06:35:53;14.20;;;12.80;;
51525;SDS011;37611;51.794;21.590;2023-11-18T06:39:55;12.50;;;11.20;;
51525;SDS011;37611;51.794;21.590;2023-11-18T06:43:58;16.30;;;13.90;;
51525;SDS011;37611;51.794;21.590;2023-11-18T06:48:05;12.60;;;11.30;;
51525;SDS011;37611;51.794;21.590;2023-11-18T06:52:07;12.00;;;10.90;;
51525;SDS011;37611;51.794;21.590;2023-11-18T06:56:11;11.70;;;10.60;;
51525;SDS011;37611;51.794;21.590;2023-11-18T07:00:13;12.00;;;10.80;;
51525;SDS011;37611;51.794;21.590;2023-11-18T07:04:15;13.60;;;11.30;;
51525;SDS011;37611;51.794;21.590;2023-11-18T07:08:17;15.00;;;11.80;;
51525;SDS011;37611;51.794;21.590;2023-11-18T07:12:18;11.00;;;9.70;;
51525;SDS011;37611;51.794;21.590;2023-11-18T07:16:24;10.60;;;9.70;;
51525;SDS011;37611;51.794;21.590;2023-11-18T07:20:26;10.00;;;9.00;;
51525;SDS011;37611;51.794;21.590;2023-11-18T07:24:27;10.90;;;9.70;;
51525;SDS011;37611;51.794;21.590;2023-11-18T07:28:31;12.90;;;10.60;;
51525;SDS011;37611;51.794;21.590;2023-11-18T07:32:33;10.20;;;8.60;;
51525;SDS011;37611;51.794;21.590;2023-11-18T07:36:35;10.20;;;9.20;;
51525;SDS011;37611;51.794;21.590;2023-11-18T07:40:36;11.50;;;10.30;;
51525;SDS011;37611;51.794;21.590;2023-11-18T07:44:43;26.90;;;15.50;;
51525;SDS011;37611;51.794;21.590;2023-11-18T07:48:45;26.20;;;16.40;;
51525;SDS011;37611;51.794;21.590;2023-11-18T07:52:47;18.00;;;13.40;;
51525;SDS011;37611;51.794;21.590;2023-11-18T07:56:50;18.00;;;13.50;;
51525;SDS011;37611;51.794;21.590;2023-11-18T08:00:51;31.50;;;17.70;;
51525;SDS011;37611;51.794;21.590;2023-11-18T08:04:53;37.00;;;21.10;;
51525;SDS011;37611;51.794;21.590;2023-11-18T08:08:54;24.20;;;18.60;;
51525;SDS011;37611;51.794;21.590;2023-11-18T08:12:58;21.50;;;16.40;;
51525;SDS011;37611;51.794;21.590;2023-11-18T08:17:00;34.50;;;17.40;;
51525;SDS011;37611;51.794;21.590;2023-11-18T08:21:02;32.90;;;20.60;;
51525;SDS011;37611;51.794;21.590;2023-11-18T08:25:06;38.30;;;26.40;;
51525;SDS011;37611;51.794;21.590;2023-11-18T08:29:09;18.30;;;14.40;;
51525;SDS011;37611;51.794;21.590;2023-11-18T08:33:12;24.30;;;14.80;;
51525;SDS011;37611;51.794;21.590;2023-11-18T08:37:14;20.80;;;14.50;;
51525;SDS011;37611;51.794;21.590;2023-11-18T08:41:15;32.50;;;18.00;;
51525;SDS011;37611;51.794;21.590;2023-11-18T08:45:20;20.30;;;14.90;;
51525;SDS011;37611;51.794;21.590;2023-11-18T08:49:30;25.00;;;17.40;;
51525;SDS011;37611;51.794;21.590;2023-11-18T08:53:35;23.00;;;16.40;;
51525;SDS011;37611;51.794;21.590;2023-11-18T08:57:42;23.60;;;16.20;;
51525;SDS011;37611;51.794;21.590;2023-11-18T09:01:54;18.80;;;13.80;;
51525;SDS011;37611;51.794;21.590;2023-11-18T09:06:01;15.60;;;12.40;;
51525;SDS011;37611;51.794;21.590;2023-11-18T09:10:18;17.20;;;12.10;;
51525;SDS011;37611;51.794;21.590;2023-11-18T09:14:20;29.90;;;16.00;;
51525;SDS011;37611;51.794;21.590;2023-11-18T09:18:22;21.60;;;14.10;;
51525;SDS011;37611;51.794;21.590;2023-11-18T09:22:24;16.40;;;11.20;;
51525;SDS011;37611;51.794;21.590;2023-11-18T09:26:25;14.60;;;9.80;;
51525;SDS011;37611;51.794;21.590;2023-11-18T09:30:31;43.00;;;20.20;;
51525;SDS011;37611;51.794;21.590;2023-11-18T09:34:35;24.10;;;15.10;;
51525;SDS011;37611;51.794;21.590;2023-11-18T09:38:37;22.10;;;14.30;;
51525;SDS011;37611;51.794;21.590;2023-11-18T09:42:41;23.10;;;13.80;;
51525;SDS011;37611;51.794;21.590;2023-11-18T09:46:45;19.90;;;13.10;;
51525;SDS011;37611;51.794;21.590;2023-11-18T09:50:48;18.90;;;13.70;;
51525;SDS011;37611;51.794;21.590;2023-11-18T09:58:57;38.70;;;30.50;;
51525;SDS011;37611;51.794;21.590;2023-11-18T10:03:05;79.60;;;44.10;;
51525;SDS011;37611;51.794;21.590;2023-11-18T10:07:09;76.30;;;46.10;;
51525;SDS011;37611;51.794;21.590;2023-11-18T10:11:12;50.60;;;35.20;;
51525;SDS011;37611;51.794;21.590;2023-11-18T10:15:15;47.40;;;31.50;;
51525;SDS011;37611;51.794;21.590;2023-11-18T10:19:18;53.60;;;31.10;;
51525;SDS011;37611;51.794;21.590;2023-11-18T10:23:21;68.50;;;30.30;;
51525;SDS011;37611;51.794;21.590;2023-11-18T10:27:23;98.40;;;47.70;;
51525;SDS011;37611;51.794;21.590;2023-11-18T10:31:26;100.70;;;52.80;;
51525;SDS011;37611;51.794;21.590;2023-11-18T10:35:28;73.40;;;35.00;;
51525;SDS011;37611;51.794;21.590;2023-11-18T10:39:31;27.00;;;15.20;;
51525;SDS011;37611;51.794;21.590;2023-11-18T10:43:32;62.90;;;26.50;;
51525;SDS011;37611;51.794;21.590;2023-11-18T10:47:37;63.90;;;28.70;;
51525;SDS011;37611;51.794;21.590;2023-11-18T10:51:40;20.20;;;16.20;;
51525;SDS011;37611;51.794;21.590;2023-11-18T10:55:42;42.60;;;24.00;;
51525;SDS011;37611;51.794;21.590;2023-11-18T11:00:03;108.80;;;48.20;;
51525;SDS011;37611;51.794;21.590;2023-11-18T11:04:14;69.40;;;32.10;;
51525;SDS011;37611;51.794;21.590;2023-11-18T11:08:22;71.40;;;31.30;;
51525;SDS011;37611;51.794;21.590;2023-11-18T11:12:25;40.20;;;21.30;;
51525;SDS011;37611;51.794;21.590;2023-11-18T11:16:33;89.60;;;59.10;;
51525;SDS011;37611;51.794;21.590;2023-11-18T11:20:42;85.00;;;49.30;;
51525;SDS011;37611;51.794;21.590;2023-11-18T11:37:34;53.90;;;28.70;;
51525;SDS011;37611;51.794;21.590;2023-11-18T11:41:38;74.90;;;35.50;;
51525;SDS011;37611;51.794;21.590;2023-11-18T11:45:40;109.60;;;44.50;;
51525;SDS011;37611;51.794;21.590;2023-11-18T11:49:48;112.50;;;53.50;;
51525;SDS011;37611;51.794;21.590;2023-11-18T11:54:01;150.30;;;62.80;;
51525;SDS011;37611;51.794;21.590;2023-11-18T11:58:18;58.80;;;34.70;;
51525;SDS011;37611;51.794;21.590;2023-11-18T12:02:26;72.70;;;41.20;;
51525;SDS011;37611;51.794;21.590;2023-11-18T12:06:30;88.90;;;38.10;;
51525;SDS011;37611;51.794;21.590;2023-11-18T12:10:32;57.40;;;32.20;;
51525;SDS011;37611;51.794;21.590;2023-11-18T12:14:58;31.20;;;22.10;;
51525;SDS011;37611;51.794;21.590;2023-11-18T12:23:20;63.30;;;37.90;;
51525;SDS011;37611;51.794;21.590;2023-11-18T12:27:41;36.70;;;25.00;;
51525;SDS011;37611;51.794;21.590;2023-11-18T12:31:44;56.30;;;34.60;;
51525;SDS011;37611;51.794;21.590;2023-11-18T12:48:20;71.30;;;39.50;;
51525;SDS011;37611;51.794;21.590;2023-11-18T12:52:28;46.90;;;33.90;;
51525;SDS011;37611;51.794;21.590;2023-11-18T12:56:29;50.60;;;32.20;;
51525;SDS011;37611;51.794;21.590;2023-11-18T13:00:31;34.90;;;24.50;;
51525;SDS011;37611;51.794;21.590;2023-11-18T13:04:35;38.60;;;29.60;;
51525;SDS011;37611;51.794;21.590;2023-11-18T13:08:41;32.40;;;25.00;;
51525;SDS011;37611;51.794;21.590;2023-11-18T13:12:43;32.50;;;26.30;;
51525;SDS011;37611;51.794;21.590;2023-11-18T13:16:46;29.20;;;22.80;;
51525;SDS011;37611;51.794;21.590;2023-11-18T13:20:55;58.00;;;32.80;;
51525;SDS011;37611;51.794;21.590;2023-11-18T13:24:58;53.80;;;32.70;;
51525;SDS011;37611;51.794;21.590;2023-11-18T13:29:00;39.40;;;29.10;;
51525;SDS011;37611;51.794;21.590;2023-11-18T13:33:03;57.70;;;38.30;;
51525;SDS011;37611;51.794;21.590;2023-11-18T13:37:05;46.50;;;38.40;;
51525;SDS011;37611;51.794;21.590;2023-11-18T13:41:08;34.60;;;29.40;;
51525;SDS011;37611;51.794;21.590;2023-11-18T13:45:11;58.30;;;42.40;;
51525;SDS011;37611;51.794;21.590;2023-11-18T13:49:13;35.00;;;28.70;;
51525;SDS011;37611;51.794;21.590;2023-11-18T13:53:15;36.60;;;27.20;;
51525;SDS011;37611;51.794;21.590;2023-11-18T13:57:16;37.90;;;28.80;;
51525;SDS011;37611;51.794;21.590;2023-11-18T14:01:18;36.80;;;28.20;;
51525;SDS011;37611;51.794;21.590;2023-11-18T14:05:21;29.30;;;22.20;;
51525;SDS011;37611;51.794;21.590;2023-11-18T14:09:23;25.90;;;20.50;;
51525;SDS011;37611;51.794;21.590;2023-11-18T14:13:28;38.90;;;30.60;;
51525;SDS011;37611;51.794;21.590;2023-11-18T14:17:32;32.40;;;27.90;;
51525;SDS011;37611;51.794;21.590;2023-11-18T14:21:33;36.10;;;30.50;;
51525;SDS011;37611;51.794;21.590;2023-11-18T14:25:35;45.70;;;35.00;;
51525;SDS011;37611;51.794;21.590;2023-11-18T14:29:37;47.10;;;42.00;;
51525;SDS011;37611;51.794;21.590;2023-11-18T14:33:39;40.90;;;34.00;;
51525;SDS011;37611;51.794;21.590;2023-11-18T14:37:40;42.50;;;34.70;;
51525;SDS011;37611;51.794;21.590;2023-11-18T14:41:43;86.50;;;51.40;;
51525;SDS011;37611;51.794;21.590;2023-11-18T14:45:45;64.80;;;51.70;;
51525;SDS011;37611;51.794;21.590;2023-11-18T14:49:46;45.70;;;39.00;;
51525;SDS011;37611;51.794;21.590;2023-11-18T14:53:48;48.60;;;37.80;;
51525;SDS011;37611;51.794;21.590;2023-11-18T14:57:49;39.70;;;31.80;;
51525;SDS011;37611;51.794;21.590;2023-11-18T15:01:51;39.70;;;31.70;;
51525;SDS011;37611;51.794;21.590;2023-11-18T15:05:58;61.30;;;41.60;;
51525;SDS011;37611;51.794;21.590;2023-11-18T15:09:59;70.30;;;43.80;;
51525;SDS011;37611;51.794;21.590;2023-11-18T15:14:01;59.40;;;38.00;;
51525;SDS011;37611;51.794;21.590;2023-11-18T15:18:04;65.80;;;41.50;;
51525;SDS011;37611;51.794;21.590;2023-11-18T15:22:15;43.10;;;33.00;;
51525;SDS011;37611;51.794;21.590;2023-11-18T15:26:17;45.90;;;32.20;;
51525;SDS011;37611;51.794;21.590;2023-11-18T15:30:18;39.60;;;29.10;;
51525;SDS011;37611;51.794;21.590;2023-11-18T15:34:20;35.20;;;25.20;;
51525;SDS011;37611;51.794;21.590;2023-11-18T15:38:22;52.70;;;34.50;;
51525;SDS011;37611;51.794;21.590;2023-11-18T15:42:24;43.00;;;30.20;;
51525;SDS011;37611;51.794;21.590;2023-11-18T15:46:25;43.70;;;30.40;;
51525;SDS011;37611;51.794;21.590;2023-11-18T15:50:27;41.60;;;29.40;;
51525;SDS011;37611;51.794;21.590;2023-11-18T15:54:30;42.90;;;30.30;;
51525;SDS011;37611;51.794;21.590;2023-11-18T15:58:32;52.00;;;35.00;;
51525;SDS011;37611;51.794;21.590;2023-11-18T16:02:33;59.20;;;38.00;;
51525;SDS011;37611;51.794;21.590;2023-11-18T16:06:35;43.20;;;27.20;;
51525;SDS011;37611;51.794;21.590;2023-11-18T16:10:38;42.60;;;28.40;;
51525;SDS011;37611;51.794;21.590;2023-11-18T16:14:40;57.00;;;37.20;;
51525;SDS011;37611;51.794;21.590;2023-11-18T16:18:41;51.80;;;34.30;;
51525;SDS011;37611;51.794;21.590;2023-11-18T16:22:51;64.90;;;42.70;;
51525;SDS011;37611;51.794;21.590;2023-11-18T16:26:53;68.50;;;39.20;;
51525;SDS011;37611;51.794;21.590;2023-11-18T16:30:55;67.40;;;40.20;;
51525;SDS011;37611;51.794;21.590;2023-11-18T16:35:02;59.50;;;36.50;;
51525;SDS011;37611;51.794;21.590;2023-11-18T16:39:06;62.90;;;45.80;;
51525;SDS011;37611;51.794;21.590;2023-11-18T16:43:08;61.10;;;43.70;;
51525;SDS011;37611;51.794;21.590;2023-11-18T16:47:09;57.90;;;40.50;;
51525;SDS011;37611;51.794;21.590;2023-11-18T16:51:11;50.40;;;34.10;;
51525;SDS011;37611;51.794;21.590;2023-11-18T16:55:13;58.60;;;39.00;;
51525;SDS011;37611;51.794;21.590;2023-11-18T16:59:14;60.60;;;36.80;;
51525;SDS011;37611;51.794;21.590;2023-11-18T17:03:16;56.30;;;35.50;;
51525;SDS011;37611;51.794;21.590;2023-11-18T17:07:19;50.20;;;33.00;;
51525;SDS011;37611;51.794;21.590;2023-11-18T17:11:22;50.20;;;35.90;;
51525;SDS011;37611;51.794;21.590;2023-11-18T17:15:24;76.70;;;49.70;;
51525;SDS011;37611;51.794;21.590;2023-11-18T17:19:25;47.20;;;30.50;;
51525;SDS011;37611;51.794;21.590;2023-11-18T17:23:27;66.00;;;41.70;;
51525;SDS011;37611;51.794;21.590;2023-11-18T17:27:29;54.80;;;37.80;;
51525;SDS011;37611;51.794;21.590;2023-11-18T17:31:31;70.60;;;44.60;;
51525;SDS011;37611;51.794;21.590;2023-11-18T17:35:33;76.50;;;44.40;;
51525;SDS011;37611;51.794;21.590;2023-11-18T17:39:35;69.60;;;39.40;;
51525;SDS011;37611;51.794;21.590;2023-11-18T17:43:36;56.00;;;33.70;;
51525;SDS011;37611;51.794;21.590;2023-11-18T17:47:42;67.30;;;39.80;;
51525;SDS011;37611;51.794;21.590;2023-11-18T17:51:44;76.90;;;46.50;;
51525;SDS011;37611;51.794;21.590;2023-11-18T17:55:46;63.40;;;40.80;;
51525;SDS011;37611;51.794;21.590;2023-11-18T17:59:48;54.50;;;35.60;;
51525;SDS011;37611;51.794;21.590;2023-11-18T18:03:56;55.70;;;38.30;;
51525;SDS011;37611;51.794;21.590;2023-11-18T18:07:58;47.80;;;35.50;;
51525;SDS011;37611;51.794;21.590;2023-11-18T18:12:00;52.70;;;36.90;;
51525;SDS011;37611;51.794;21.590;2023-11-18T18:16:01;44.90;;;31.90;;
51525;SDS011;37611;51.794;21.590;2023-11-18T18:20:05;53.50;;;37.80;;
51525;SDS011;37611;51.794;21.590;2023-11-18T18:24:10;57.40;;;40.20;;
51525;SDS011;37611;51.794;21.590;2023-11-18T18:28:12;65.00;;;44.50;;
51525;SDS011;37611;51.794;21.590;2023-11-18T18:32:13;69.50;;;44.90;;
51525;SDS011;37611;51.794;21.590;2023-11-18T18:36:15;64.30;;;44.20;;
51525;SDS011;37611;51.794;21.590;2023-11-18T18:40:17;79.40;;;56.50;;
51525;SDS011;37611;51.794;21.590;2023-11-18T18:44:24;80.70;;;50.90;;
51525;SDS011;37611;51.794;21.590;2023-11-18T18:48:26;82.20;;;54.80;;
51525;SDS011;37611;51.794;21.590;2023-11-18T18:52:28;70.00;;;51.50;;
51525;SDS011;37611;51.794;21.590;2023-11-18T18:56:30;74.40;;;55.60;;
51525;SDS011;37611;51.794;21.590;2023-11-18T19:00:31;66.00;;;43.90;;
51525;SDS011;37611;51.794;21.590;2023-11-18T19:04:33;54.60;;;39.40;;
51525;SDS011;37611;51.794;21.590;2023-11-18T19:08:34;44.60;;;33.30;;
51525;SDS011;37611;51.794;21.590;2023-11-18T19:12:36;59.70;;;44.00;;
51525;SDS011;37611;51.794;21.590;2023-11-18T19:16:38;57.00;;;42.80;;
51525;SDS011;37611;51.794;21.590;2023-11-18T19:20:40;52.60;;;39.10;;
51525;SDS011;37611;51.794;21.590;2023-11-18T19:24:41;62.90;;;45.30;;
51525;SDS011;37611;51.794;21.590;2023-11-18T19:28:44;48.90;;;36.60;;
51525;SDS011;37611;51.794;21.590;2023-11-18T19:32:45;106.60;;;80.50;;
51525;SDS011;37611;51.794;21.590;2023-11-18T19:36:47;79.80;;;56.60;;
51525;SDS011;37611;51.794;21.590;2023-11-18T19:40:48;67.20;;;49.00;;
51525;SDS011;37611;51.794;21.590;2023-11-18T19:44:50;63.70;;;44.20;;
51525;SDS011;37611;51.794;21.590;2023-11-18T19:48:54;68.30;;;43.60;;
51525;SDS011;37611;51.794;21.590;2023-11-18T19:52:56;64.70;;;44.90;;
51525;SDS011;37611;51.794;21.590;2023-11-18T19:56:57;138.40;;;82.30;;
51525;SDS011;37611;51.794;21.590;2023-11-18T20:01:00;66.00;;;44.90;;
51525;SDS011;37611;51.794;21.590;2023-11-18T20:05:01;44.00;;;33.70;;
51525;SDS011;37611;51.794;21.590;2023-11-18T20:09:03;39.90;;;31.70;;
51525;SDS011;37611;51.794;21.590;2023-11-18T20:27:33;75.00;;;49.20;;
51525;SDS011;37611;51.794;21.590;2023-11-18T20:36:40;76.90;;;50.20;;
51525;SDS011;37611;51.794;21.590;2023-11-18T20:41:08;95.90;;;56.40;;
51525;SDS011;37611;51.794;21.590;2023-11-18T20:45:34;152.50;;;104.00;;
51525;SDS011;37611;51.794;21.590;2023-11-18T20:49:36;64.80;;;43.30;;
51525;SDS011;37611;51.794;21.590;2023-11-18T20:53:38;56.60;;;39.90;;
51525;SDS011;37611;51.794;21.590;2023-11-18T20:57:52;60.50;;;44.50;;
51525;SDS011;37611;51.794;21.590;2023-11-18T21:02:24;44.80;;;34.90;;
51525;SDS011;37611;51.794;21.590;2023-11-18T21:06:46;41.70;;;31.70;;
51525;SDS011;37611;51.794;21.590;2023-11-18T21:11:22;55.70;;;36.90;;
51525;SDS011;37611;51.794;21.590;2023-11-18T21:24:46;54.70;;;36.50;;
51525;SDS011;37611;51.794;21.590;2023-11-18T21:29:14;80.90;;;52.30;;
51525;SDS011;37611;51.794;21.590;2023-11-18T21:33:22;219.30;;;147.80;;
51525;SDS011;37611;51.794;21.590;2023-11-18T21:37:24;132.60;;;70.90;;
51525;SDS011;37611;51.794;21.590;2023-11-18T21:41:33;105.50;;;61.70;;
51525;SDS011;37611;51.794;21.590;2023-11-18T21:45:37;69.50;;;42.90;;
51525;SDS011;37611;51.794;21.590;2023-11-18T21:49:41;223.90;;;141.40;;
51525;SDS011;37611;51.794;21.590;2023-11-18T21:53:44;58.80;;;42.10;;
51525;SDS011;37611;51.794;21.590;2023-11-18T21:57:46;49.00;;;34.60;;
51525;SDS011;37611;51.794;21.590;2023-11-18T22:01:47;47.20;;;34.10;;
51525;SDS011;37611;51.794;21.590;2023-11-18T22:05:50;64.20;;;49.00;;
51525;SDS011;37611;51.794;21.590;2023-11-18T22:09:52;74.50;;;61.20;;
51525;SDS011;37611;51.794;21.590;2023-11-18T22:13:54;77.90;;;61.50;;
51525;SDS011;37611;51.794;21.590;2023-11-18T22:17:56;58.40;;;40.60;;
51525;SDS011;37611;51.794;21.590;2023-11-18T22:21:57;83.50;;;50.10;;
51525;SDS011;37611;51.794;21.590;2023-11-18T22:26:05;66.00;;;53.20;;
51525;SDS011;37611;51.794;21.590;2023-11-18T22:30:43;106.50;;;82.70;;
51525;SDS011;37611;51.794;21.590;2023-11-18T22:35:08;58.70;;;43.90;;
51525;SDS011;37611;51.794;21.590;2023-11-18T22:48:01;46.50;;;32.00;;
51525;SDS011;37611;51.794;21.590;2023-11-18T22:52:23;44.20;;;30.50;;
51525;SDS011;37611;51.794;21.590;2023-11-18T22:56:27;42.70;;;31.50;;
51525;SDS011;37611;51.794;21.590;2023-11-18T23:00:34;42.90;;;29.10;;
51525;SDS011;37611;51.794;21.590;2023-11-18T23:04:56;115.80;;;56.90;;
51525;SDS011;37611;51.794;21.590;2023-11-18T23:08:58;89.70;;;63.00;;
51525;SDS011;37611;51.794;21.590;2023-11-18T23:13:00;37.80;;;28.40;;
51525;SDS011;37611;51.794;21.590;2023-11-18T23:17:02;35.40;;;27.30;;
51525;SDS011;37611;51.794;21.590;2023-11-18T23:21:05;44.80;;;34.90;;
51525;SDS011;37611;51.794;21.590;2023-11-18T23:25:09;41.00;;;31.80;;
51525;SDS011;37611;51.794;21.590;2023-11-18T23:33:44;43.40;;;28.80;;
51525;SDS011;37611;51.794;21.590;2023-11-18T23:37:49;39.80;;;28.80;;
51525;SDS011;37611;51.794;21.590;2023-11-18T23:41:52;50.00;;;31.30;;
51525;SDS011;37611;51.794;21.590;2023-11-18T23:45:57;49.00;;;32.40;;
51525;SDS011;37611;51.794;21.590;2023-11-18T23:49:59;38.60;;;28.60;;
51525;SDS011;37611;51.794;21.590;2023-11-18T23:54:04;45.00;;;29.80;;
51525;SDS011;37611;51.794;21.590;2023-11-18T23:58:09;46.30;;;31.10;;
